createdAt,value
2023-03-16T00:00:52.297Z,71.79
2023-03-16T00:03:18.772Z,72.48
2023-03-16T00:05:45.171Z,72.61
2023-03-16T00:08:11.549Z,72.03
2023-03-16T00:10:37.937Z,71.89
2023-03-16T00:13:04.322Z,71.80
2023-03-16T00:15:30.667Z,71.79
2023-03-16T00:17:57.005Z,71.95
2023-03-16T00:20:23.399Z,71.26
2023-03-16T00:22:50.221Z,72.09
2023-03-16T00:25:16.557Z,72.09
2023-03-16T00:27:42.982Z,71.88
2023-03-16T00:30:09.339Z,71.44
2023-03-16T00:32:38.393Z,71.46
2023-03-16T00:35:05.099Z,71.28
2023-03-16T00:37:32.602Z,72.39
2023-03-16T00:39:58.972Z,72.95
2023-03-16T00:42:25.347Z,72.97
2023-03-16T00:44:51.796Z,73.20
2023-03-16T00:47:18.515Z,73.11
2023-03-16T00:49:44.914Z,73.06
2023-03-16T00:52:11.399Z,72.56
2023-03-16T00:54:39.094Z,72.04
2023-03-16T00:57:05.430Z,71.97
2023-03-16T00:59:31.900Z,72.65
2023-03-16T01:01:58.253Z,73.07
2023-03-16T01:04:25.719Z,73.03
2023-03-16T01:06:53.279Z,73.59
2023-03-16T01:09:19.619Z,73.35
2023-03-16T01:11:46.260Z,72.85
2023-03-16T01:14:12.692Z,72.78
2023-03-16T01:16:39.077Z,72.15
2023-03-16T01:19:05.651Z,71.60
2023-03-16T01:21:32.030Z,71.64
2023-03-16T01:23:58.499Z,71.51
2023-03-16T01:26:24.841Z,71.57
2023-03-16T01:28:52.604Z,71.18
2023-03-16T01:31:18.995Z,71.70
2023-03-16T01:33:47.767Z,72.24
2023-03-16T01:36:14.126Z,72.99
2023-03-16T01:38:40.754Z,72.63
2023-03-16T01:41:07.147Z,72.58
2023-03-16T01:43:33.553Z,72.32
2023-03-16T01:45:59.946Z,72.25
2023-03-16T01:48:26.286Z,72.17
2023-03-16T01:50:52.660Z,72.08
2023-03-16T01:53:19.157Z,72.14
2023-03-16T01:55:45.535Z,72.67
2023-03-16T01:58:11.867Z,72.53
2023-03-16T02:00:38.439Z,72.65
2023-03-16T02:03:04.828Z,73.00
2023-03-16T02:05:31.210Z,73.92
2023-03-16T02:07:57.597Z,74.18
2023-03-16T02:10:23.986Z,74.37
2023-03-16T02:12:50.344Z,74.32
2023-03-16T02:15:17.258Z,75.05
2023-03-16T02:17:43.615Z,74.89
2023-03-16T02:20:10.260Z,74.38
2023-03-16T02:22:36.639Z,73.51
2023-03-16T02:25:03.115Z,73.38
2023-03-16T02:27:29.587Z,73.83
2023-03-16T02:29:57.043Z,74.21
2023-03-16T02:32:23.544Z,74.44
2023-03-16T02:34:49.978Z,74.55
2023-03-16T02:37:17.359Z,74.80
2023-03-16T02:39:43.716Z,74.85
2023-03-16T02:42:10.171Z,74.84
2023-03-16T02:44:36.576Z,74.51
2023-03-16T02:47:03.153Z,74.39
2023-03-16T02:49:29.881Z,74.46
2023-03-16T02:51:58.595Z,73.98
2023-03-16T02:54:24.979Z,74.51
2023-03-16T02:56:51.716Z,74.32
2023-03-16T02:59:18.456Z,74.85
2023-03-16T03:01:44.831Z,73.89
2023-03-16T03:04:11.187Z,74.19
2023-03-16T03:06:37.575Z,73.84
2023-03-16T03:09:04.561Z,74.10
2023-03-16T03:11:32.233Z,73.77
2023-03-16T03:14:01.068Z,74.21
2023-03-16T03:16:27.549Z,74.92
2023-03-16T03:18:54.126Z,75.63
2023-03-16T03:21:20.482Z,75.51
2023-03-16T03:23:46.869Z,75.42
2023-03-16T03:26:14.228Z,75.04
2023-03-16T03:28:40.611Z,75.03
2023-03-16T03:31:07.015Z,75.30
2023-03-16T03:33:33.427Z,74.87
2023-03-16T03:36:02.614Z,75.02
2023-03-16T03:38:29.209Z,74.75
2023-03-16T03:40:55.538Z,75.12
2023-03-16T03:43:21.872Z,75.40
2023-03-16T03:45:49.362Z,75.72
2023-03-16T03:48:16.786Z,75.68
2023-03-16T03:50:43.523Z,75.30
2023-03-16T03:53:10.038Z,75.37
2023-03-16T03:55:36.443Z,75.72
2023-03-16T03:58:03.695Z,76.14
2023-03-16T04:00:30.148Z,75.67
2023-03-16T04:02:56.578Z,75.37
2023-03-16T04:05:24.277Z,74.87
2023-03-16T04:07:50.627Z,74.61
2023-03-16T04:10:17.848Z,74.80
2023-03-16T04:12:44.437Z,75.09
2023-03-16T04:15:10.929Z,75.32
2023-03-16T04:17:37.275Z,75.58
2023-03-16T04:20:07.421Z,75.54
2023-03-16T04:22:33.804Z,75.66
2023-03-16T04:25:00.154Z,75.72
2023-03-16T04:27:26.855Z,75.66
2023-03-16T04:29:54.549Z,76.57
2023-03-16T04:32:20.894Z,76.44
2023-03-16T04:34:47.313Z,76.03
2023-03-16T04:37:13.720Z,76.10
2023-03-16T04:39:40.096Z,76.07
2023-03-16T04:42:06.794Z,76.39
2023-03-16T04:44:33.444Z,76.03
2023-03-16T04:46:59.935Z,75.94
2023-03-16T04:49:26.582Z,76.59
2023-03-16T04:51:52.931Z,76.95
2023-03-16T04:54:19.297Z,77.04
2023-03-16T04:56:45.755Z,76.82
2023-03-16T04:59:12.140Z,76.77
2023-03-16T05:01:39.524Z,77.26
2023-03-16T05:04:06.257Z,77.12
2023-03-16T05:06:32.639Z,77.20
2023-03-16T05:08:59.021Z,76.74
2023-03-16T05:11:25.557Z,76.70
2023-03-16T05:13:51.987Z,76.22
2023-03-16T05:16:18.512Z,76.61
2023-03-16T05:18:45.315Z,76.92
2023-03-16T05:21:11.938Z,77.38
2023-03-16T05:23:41.297Z,77.00
2023-03-16T05:26:08.075Z,76.78
2023-03-16T05:28:34.496Z,76.49
2023-03-16T05:31:06.943Z,77.07
2023-03-16T05:33:33.707Z,76.62
2023-03-16T05:36:03.522Z,76.83
2023-03-16T05:38:30.344Z,76.97
2023-03-16T05:40:57.862Z,77.46
2023-03-16T05:43:27.883Z,77.51
2023-03-16T05:45:54.353Z,76.78
2023-03-16T05:48:23.911Z,76.85
2023-03-16T05:50:52.603Z,76.71
2023-03-16T05:53:19.068Z,75.99
2023-03-16T05:55:45.543Z,75.84
2023-03-16T05:58:13.475Z,75.31
2023-03-16T06:00:39.872Z,75.65
2023-03-16T06:03:07.493Z,76.28
2023-03-16T06:05:36.809Z,76.14
2023-03-16T06:08:04.274Z,75.82
2023-03-16T06:10:30.823Z,75.70
2023-03-16T06:12:58.955Z,75.40
2023-03-16T06:15:26.295Z,74.77
2023-03-16T06:17:52.690Z,74.71
2023-03-16T06:20:22.386Z,74.73
2023-03-16T06:22:48.833Z,74.89
2023-03-16T06:25:15.411Z,74.85
2023-03-16T06:27:49.344Z,74.40
2023-03-16T06:30:17.925Z,74.32
2023-03-16T06:32:44.358Z,74.37
2023-03-16T06:35:10.757Z,74.16
2023-03-16T06:37:37.236Z,74.16
2023-03-16T06:40:03.640Z,74.71
2023-03-16T06:42:30.012Z,74.74
2023-03-16T06:44:59.023Z,74.02
2023-03-16T06:47:25.629Z,73.27
2023-03-16T06:49:52.171Z,72.47
2023-03-16T06:52:18.548Z,71.97
2023-03-16T06:54:44.934Z,72.38
2023-03-16T06:57:12.316Z,73.06
2023-03-16T06:59:38.824Z,73.04
2023-03-16T07:02:05.175Z,73.17
2023-03-16T07:04:31.646Z,73.25
2023-03-16T07:06:58.057Z,72.99
2023-03-16T07:09:27.111Z,72.53
2023-03-16T07:11:53.920Z,72.63
2023-03-16T07:14:20.424Z,72.03
2023-03-16T07:16:46.946Z,71.88
2023-03-16T07:19:17.455Z,70.85
2023-03-16T07:21:44.278Z,69.70
2023-03-16T07:24:11.143Z,68.57
2023-03-16T07:26:37.708Z,68.83
2023-03-16T07:29:04.315Z,68.12
2023-03-16T07:31:30.683Z,68.04
2023-03-16T07:33:57.394Z,68.49
2023-03-16T07:36:24.135Z,67.71
2023-03-16T07:38:51.245Z,65.67
2023-03-16T07:41:17.632Z,64.30
2023-03-16T07:43:45.370Z,64.39
2023-03-16T07:46:12.007Z,63.53
2023-03-16T07:48:38.393Z,63.44
2023-03-16T07:51:07.434Z,63.62
2023-03-16T07:53:33.807Z,63.76
2023-03-16T07:56:00.286Z,63.19
2023-03-16T07:58:26.784Z,63.72
2023-03-16T08:00:53.421Z,62.22
2023-03-16T08:03:20.029Z,61.72
2023-03-16T08:05:48.724Z,59.68
2023-03-16T08:08:15.343Z,59.56
2023-03-16T08:10:42.068Z,57.69
2023-03-16T08:13:08.968Z,57.97
2023-03-16T08:15:36.571Z,57.78
2023-03-16T08:18:03.106Z,58.41
2023-03-16T08:20:32.362Z,58.64
2023-03-16T08:22:59.089Z,58.28
2023-03-16T08:25:27.972Z,58.37
2023-03-16T08:27:54.682Z,57.86
2023-03-16T08:30:21.277Z,57.78
2023-03-16T08:32:47.664Z,58.13
2023-03-16T08:35:14.787Z,57.74
2023-03-16T08:37:41.135Z,57.35
2023-03-16T08:40:07.594Z,55.79
2023-03-16T08:42:35.258Z,55.92
2023-03-16T08:45:01.826Z,55.45
2023-03-16T08:47:29.545Z,55.34
2023-03-16T08:49:56.269Z,54.27
2023-03-16T08:52:23.125Z,54.76
2023-03-16T08:55:01.968Z,53.86
2023-03-16T08:57:29.836Z,53.13
2023-03-16T08:59:56.299Z,52.67
2023-03-16T09:02:22.750Z,51.84
2023-03-16T09:04:49.147Z,52.63
2023-03-16T09:07:15.539Z,52.95
2023-03-16T09:09:41.882Z,52.39
2023-03-16T09:12:09.020Z,51.75
2023-03-16T09:14:35.361Z,51.61
2023-03-16T09:17:02.744Z,52.59
2023-03-16T09:19:34.832Z,51.98
2023-03-16T09:22:07.220Z,51.16
2023-03-16T09:24:33.601Z,51.22
2023-03-16T09:27:00.171Z,47.42
2023-03-16T09:29:26.714Z,48.38
2023-03-16T09:31:53.536Z,47.54
2023-03-16T09:34:21.350Z,48.15
2023-03-16T09:36:47.954Z,48.00
2023-03-16T09:39:14.773Z,48.82
2023-03-16T09:41:41.246Z,50.41
2023-03-16T09:44:08.833Z,51.94
2023-03-16T09:46:36.389Z,47.80
2023-03-16T09:49:02.802Z,47.08
2023-03-16T09:51:29.537Z,45.28
2023-03-16T09:53:56.044Z,45.54
2023-03-16T09:56:22.518Z,45.16
2023-03-16T09:58:48.919Z,44.19
2023-03-16T10:01:16.319Z,44.57
2023-03-16T10:03:45.099Z,44.07
2023-03-16T10:06:12.685Z,42.05
2023-03-16T10:08:43.439Z,44.00
2023-03-16T10:11:10.385Z,42.65
2023-03-16T10:13:40.091Z,45.42
2023-03-16T10:16:06.815Z,42.00
2023-03-16T10:18:33.501Z,43.90
2023-03-16T10:20:59.866Z,44.23
2023-03-16T10:23:27.402Z,42.95
2023-03-16T10:25:53.835Z,44.79
2023-03-16T10:28:20.521Z,43.04
2023-03-16T10:30:46.889Z,43.85
2023-03-16T10:33:15.793Z,42.25
2023-03-16T10:35:42.777Z,41.44
2023-03-16T10:38:12.463Z,41.23
2023-03-16T10:40:39.929Z,41.48
2023-03-16T10:43:10.649Z,41.52
2023-03-16T10:45:37.263Z,41.05
2023-03-16T10:48:05.872Z,40.12
2023-03-16T10:50:32.244Z,41.42
2023-03-16T10:52:59.393Z,38.47
2023-03-16T10:55:25.799Z,39.59
2023-03-16T10:57:52.431Z,38.82
2023-03-16T11:00:18.828Z,38.50
2023-03-16T11:02:45.283Z,39.12
2023-03-16T11:05:11.651Z,39.26
2023-03-16T11:07:38.031Z,38.07
2023-03-16T11:10:04.470Z,38.25
2023-03-16T11:12:30.931Z,38.33
2023-03-16T11:14:57.619Z,38.94
2023-03-16T11:17:26.026Z,36.82
2023-03-16T11:19:52.792Z,38.90
2023-03-16T11:22:21.504Z,38.29
2023-03-16T11:24:47.930Z,37.31
2023-03-16T11:27:14.368Z,38.65
2023-03-16T11:29:41.088Z,37.96
2023-03-16T11:32:07.435Z,36.48
2023-03-16T11:34:35.504Z,37.44
2023-03-16T11:37:01.885Z,37.12
2023-03-16T11:39:29.655Z,38.78
2023-03-16T11:41:57.828Z,37.87
2023-03-16T11:44:24.730Z,36.97
2023-03-16T11:46:51.253Z,38.62
2023-03-16T11:49:17.732Z,37.85
2023-03-16T11:51:44.186Z,37.98
2023-03-16T11:54:10.583Z,39.77
2023-03-16T11:56:39.106Z,38.51
2023-03-16T11:59:05.506Z,37.70
2023-03-16T12:01:32.101Z,37.23
2023-03-16T12:03:58.766Z,36.79
2023-03-16T12:06:25.348Z,36.43
2023-03-16T12:08:52.063Z,36.89
2023-03-16T12:11:19.015Z,37.42
2023-03-16T12:13:45.732Z,37.87
2023-03-16T12:18:52.500Z,38.31
2023-03-16T12:21:18.898Z,37.25
2023-03-16T12:23:45.492Z,37.52
2023-03-16T12:26:11.954Z,37.61
2023-03-16T12:28:39.361Z,36.19
2023-03-16T12:31:07.253Z,36.91
2023-03-16T12:33:33.655Z,37.10
2023-03-16T12:36:00.241Z,37.97
2023-03-16T12:38:27.346Z,36.37
2023-03-16T12:40:53.798Z,38.38
2023-03-16T12:43:20.191Z,39.30
2023-03-16T12:45:46.976Z,36.51
2023-03-16T12:48:13.551Z,36.09
2023-03-16T12:50:40.171Z,38.25
2023-03-16T12:53:06.705Z,38.16
2023-03-16T12:55:33.259Z,36.74
2023-03-16T12:57:59.775Z,36.28
2023-03-16T13:00:26.526Z,36.93
2023-03-16T13:02:53.068Z,36.54
2023-03-16T13:05:19.536Z,36.48
2023-03-16T13:07:45.916Z,34.95
2023-03-16T13:10:12.445Z,35.35
2023-03-16T13:12:39.152Z,35.89
2023-03-16T13:15:06.127Z,35.83
2023-03-16T13:17:32.658Z,37.72
2023-03-16T13:19:59.048Z,34.19
2023-03-16T13:22:26.029Z,34.62
2023-03-16T13:24:52.504Z,35.46
2023-03-16T13:27:18.989Z,35.97
2023-03-16T13:29:46.415Z,37.04
2023-03-16T13:32:12.805Z,37.58
2023-03-16T13:34:39.515Z,37.38
2023-03-16T13:37:17.775Z,36.73
2023-03-16T13:39:44.234Z,36.92
2023-03-16T13:42:10.628Z,36.16
2023-03-16T13:44:37.127Z,37.03
2023-03-16T13:47:06.130Z,36.64
2023-03-16T13:49:32.849Z,36.94
2023-03-16T13:51:59.707Z,36.70
2023-03-16T13:54:26.169Z,35.60
2023-03-16T13:56:52.564Z,36.49
2023-03-16T13:59:19.151Z,37.83
2023-03-16T14:01:45.557Z,37.62
2023-03-16T14:04:12.176Z,37.69
2023-03-16T14:06:39.723Z,37.95
2023-03-16T14:09:06.174Z,38.61
2023-03-16T14:11:33.010Z,38.20
2023-03-16T14:13:59.650Z,38.43
2023-03-16T14:16:26.098Z,39.87
2023-03-16T14:18:52.685Z,40.37
2023-03-16T14:21:19.143Z,39.78
2023-03-16T14:23:45.612Z,38.98
2023-03-16T14:26:12.896Z,39.42
2023-03-16T14:28:46.679Z,38.84
2023-03-16T14:31:13.350Z,38.65
2023-03-16T14:33:40.356Z,38.10
2023-03-16T14:36:06.815Z,38.70
2023-03-16T14:38:33.477Z,38.91
2023-03-16T14:41:00.853Z,40.48
2023-03-16T14:43:28.316Z,39.80
2023-03-16T14:45:57.065Z,38.42
2023-03-16T14:48:23.606Z,38.82
2023-03-16T14:50:50.100Z,38.32
2023-03-16T14:53:18.643Z,40.16
2023-03-16T14:55:45.016Z,38.79
2023-03-16T14:58:11.546Z,38.00
2023-03-16T15:00:51.953Z,40.36
2023-03-16T15:03:19.376Z,40.89
2023-03-16T15:05:46.072Z,39.67
2023-03-16T15:08:12.424Z,38.44
2023-03-16T15:10:38.771Z,39.72
2023-03-16T15:13:05.281Z,37.80
2023-03-16T15:15:33.927Z,38.18
2023-03-16T15:18:00.339Z,38.70
2023-03-16T15:20:27.638Z,37.55
2023-03-16T15:22:54.211Z,36.97
2023-03-16T15:25:20.657Z,38.21
2023-03-16T15:27:49.343Z,37.75
2023-03-16T15:30:15.732Z,38.36
2023-03-16T15:32:42.512Z,37.71
2023-03-16T15:35:09.040Z,37.45
2023-03-16T15:37:42.615Z,37.53
2023-03-16T15:40:09.090Z,37.15
2023-03-16T15:42:35.828Z,37.47
2023-03-16T15:45:03.415Z,37.75
2023-03-16T15:47:30.861Z,37.41
2023-03-16T15:49:58.595Z,37.06
2023-03-16T15:52:32.200Z,37.65
2023-03-16T15:55:01.106Z,37.43
2023-03-16T15:57:27.642Z,37.63
2023-03-16T15:59:56.360Z,37.60
2023-03-16T16:02:22.836Z,38.74
2023-03-16T16:04:49.338Z,38.06
2023-03-16T16:07:16.031Z,38.19
2023-03-16T16:09:42.666Z,38.34
2023-03-16T16:12:09.549Z,38.11
2023-03-16T16:14:35.922Z,39.06
2023-03-16T16:17:04.775Z,40.66
2023-03-16T16:19:31.232Z,39.89
2023-03-16T16:21:57.948Z,39.50
2023-03-16T16:24:24.815Z,39.36
2023-03-16T16:26:55.573Z,40.15
2023-03-16T16:29:22.724Z,39.73
2023-03-16T16:31:49.439Z,39.62
2023-03-16T16:34:15.859Z,40.66
2023-03-16T16:36:42.783Z,40.21
2023-03-16T16:39:09.455Z,39.98
2023-03-16T16:41:35.911Z,41.11
2023-03-16T16:44:02.288Z,41.96
2023-03-16T16:46:28.868Z,41.96
2023-03-16T16:48:58.453Z,41.48
2023-03-16T16:51:25.160Z,41.54
2023-03-16T16:53:51.804Z,42.45
2023-03-16T16:56:18.245Z,41.78
2023-03-16T16:58:44.630Z,42.63
2023-03-16T17:01:13.348Z,42.23
2023-03-16T17:03:39.724Z,42.57
2023-03-16T17:06:06.135Z,43.16
2023-03-16T17:08:37.328Z,43.43
2023-03-16T17:11:03.725Z,43.53
2023-03-16T17:13:30.263Z,44.09
2023-03-16T17:15:56.772Z,43.60
2023-03-16T17:18:23.173Z,44.42
2023-03-16T17:20:49.878Z,44.52
2023-03-16T17:23:16.369Z,45.57
2023-03-16T17:25:43.241Z,46.67
2023-03-16T17:28:10.907Z,48.37
2023-03-16T17:30:37.406Z,48.38
2023-03-16T17:33:04.142Z,49.50
2023-03-16T17:35:31.056Z,50.13
2023-03-16T17:38:00.418Z,50.17
2023-03-16T17:40:26.887Z,50.54
2023-03-16T17:42:55.623Z,50.93
2023-03-16T17:45:22.441Z,51.48
2023-03-16T17:47:48.788Z,51.90
2023-03-16T17:50:15.148Z,52.44
2023-03-16T17:52:41.761Z,53.37
2023-03-16T17:55:08.096Z,53.53
2023-03-16T17:57:37.074Z,54.05
2023-03-16T18:00:03.782Z,55.21
2023-03-16T18:02:33.507Z,55.13
2023-03-16T18:04:59.888Z,55.28
2023-03-16T18:07:26.290Z,56.29
2023-03-16T18:09:52.724Z,56.49
2023-03-16T18:12:19.111Z,56.65
2023-03-16T18:14:45.572Z,57.42
2023-03-16T18:17:12.169Z,57.54
2023-03-16T18:19:38.565Z,57.68
2023-03-16T18:22:04.903Z,57.57
2023-03-16T18:24:31.300Z,57.83
2023-03-16T18:26:57.709Z,58.92
2023-03-16T18:29:24.175Z,59.58
2023-03-16T18:31:50.566Z,59.79
2023-03-16T18:34:16.904Z,59.80
2023-03-16T18:36:44.311Z,60.25
2023-03-16T18:39:10.666Z,60.72
2023-03-16T18:41:37.099Z,60.95
2023-03-16T18:44:03.460Z,61.94
2023-03-16T18:46:29.924Z,62.72
2023-03-16T18:48:56.366Z,62.54
2023-03-16T18:51:22.815Z,62.26
2023-03-16T18:53:49.191Z,62.25
2023-03-16T18:56:15.576Z,62.04
2023-03-16T18:58:42.265Z,62.79
2023-03-16T19:01:08.631Z,61.97
2023-03-16T19:03:35.042Z,62.91
2023-03-16T19:06:01.389Z,63.20
2023-03-16T19:08:28.175Z,63.61
2023-03-16T19:10:54.503Z,63.39
2023-03-16T19:13:20.831Z,63.14
2023-03-16T19:15:47.207Z,64.20
2023-03-16T19:18:13.977Z,65.22
2023-03-16T19:20:40.421Z,65.19
2023-03-16T19:23:06.778Z,65.81
2023-03-16T19:25:33.162Z,65.80
2023-03-16T19:27:59.599Z,65.74
2023-03-16T19:30:25.988Z,65.72
2023-03-16T19:32:53.995Z,65.60
2023-03-16T19:35:20.828Z,64.66
2023-03-16T19:37:47.242Z,64.83
2023-03-16T19:40:13.645Z,64.62
2023-03-16T19:42:39.992Z,64.81
2023-03-16T19:45:06.376Z,64.25
2023-03-16T19:47:35.018Z,63.62
2023-03-16T19:50:01.366Z,65.17
2023-03-16T19:52:27.741Z,64.90
2023-03-16T19:54:54.143Z,65.21
2023-03-16T19:57:20.493Z,65.61
2023-03-16T19:59:46.952Z,66.01
2023-03-16T20:02:15.388Z,66.40
2023-03-16T20:04:41.804Z,65.89
2023-03-16T20:07:08.196Z,65.81
2023-03-16T20:09:34.589Z,66.20
2023-03-16T20:12:00.944Z,66.70
2023-03-16T20:14:27.324Z,66.76
2023-03-16T20:16:53.803Z,68.72
2023-03-16T20:19:22.526Z,67.91
2023-03-16T20:21:48.903Z,67.64
2023-03-16T20:24:15.348Z,67.82
2023-03-16T20:26:41.698Z,67.99
2023-03-16T20:29:09.205Z,67.83
2023-03-16T20:31:36.715Z,66.99
2023-03-16T20:34:03.050Z,66.68
2023-03-16T20:36:29.483Z,66.97
2023-03-16T20:38:56.203Z,66.62
2023-03-16T20:41:22.664Z,68.20
2023-03-16T20:43:49.053Z,67.98
2023-03-16T20:46:17.718Z,67.83
2023-03-16T20:48:44.171Z,68.32
2023-03-16T20:51:10.511Z,68.58
2023-03-16T20:53:36.977Z,69.21
2023-03-16T20:56:03.339Z,69.26
2023-03-16T20:58:29.687Z,70.00
2023-03-16T21:00:56.066Z,70.50
2023-03-16T21:03:22.453Z,69.67
2023-03-16T21:05:52.083Z,69.24
2023-03-16T21:08:18.570Z,69.60
2023-03-16T21:10:52.152Z,69.78
2023-03-16T21:13:18.648Z,70.02
2023-03-16T21:15:45.103Z,69.41
2023-03-16T21:18:11.483Z,69.11
2023-03-16T21:20:38.127Z,68.41
2023-03-16T21:23:04.513Z,68.26
2023-03-16T21:25:31.427Z,67.94
2023-03-16T21:27:58.019Z,68.78
2023-03-16T21:30:24.394Z,69.35
2023-03-16T21:32:50.818Z,69.56
2023-03-16T21:35:17.238Z,70.11
2023-03-16T21:37:43.741Z,70.59
2023-03-16T21:40:10.089Z,70.86
2023-03-16T21:42:38.581Z,71.38
2023-03-16T21:45:07.027Z,71.59
2023-03-16T21:47:33.569Z,71.35
2023-03-16T21:50:02.051Z,71.08
2023-03-16T21:52:28.401Z,71.55
2023-03-16T21:54:55.229Z,71.24
2023-03-16T21:57:21.567Z,72.53
2023-03-16T21:59:47.970Z,72.79
2023-03-16T22:02:14.607Z,72.68
2023-03-16T22:04:43.230Z,72.36
2023-03-16T22:07:09.624Z,71.49
2023-03-16T22:09:36.003Z,71.60
2023-03-16T22:12:02.358Z,70.65
2023-03-16T22:14:28.735Z,70.27
2023-03-16T22:16:55.150Z,71.41
2023-03-16T22:19:21.604Z,70.97
2023-03-16T22:21:50.133Z,71.85
2023-03-16T22:24:16.548Z,71.34
2023-03-16T22:26:45.207Z,71.53
2023-03-16T22:29:11.772Z,72.29
2023-03-16T22:31:38.149Z,72.49
2023-03-16T22:34:04.565Z,72.55
2023-03-16T22:36:31.021Z,72.20
2023-03-16T22:38:57.364Z,72.59
2023-03-16T22:41:23.914Z,71.40
2023-03-16T22:43:50.960Z,71.96
2023-03-16T22:46:17.417Z,72.04
2023-03-16T22:48:43.934Z,72.33
2023-03-16T22:51:10.295Z,72.30
2023-03-16T22:53:36.682Z,72.41
2023-03-16T22:56:03.387Z,72.62
2023-03-16T22:58:30.071Z,73.38
2023-03-16T23:00:56.707Z,73.81
2023-03-16T23:03:23.172Z,73.79
2023-03-16T23:05:49.657Z,72.93
2023-03-16T23:08:16.367Z,72.43
2023-03-16T23:10:49.759Z,72.03
2023-03-16T23:13:17.095Z,71.33
2023-03-16T23:15:43.750Z,70.73
2023-03-16T23:18:10.129Z,70.78
2023-03-16T23:20:36.592Z,70.94
2023-03-16T23:23:03.552Z,71.46
2023-03-16T23:25:29.927Z,72.18
2023-03-16T23:27:56.276Z,71.92
2023-03-16T23:30:22.664Z,71.88
2023-03-16T23:32:49.108Z,71.67
2023-03-16T23:35:15.495Z,72.12
2023-03-16T23:37:42.052Z,72.23
2023-03-16T23:40:08.644Z,72.71
2023-03-16T23:42:34.987Z,73.91
2023-03-16T23:45:01.352Z,75.65
2023-03-16T23:47:29.808Z,75.71
2023-03-16T23:49:56.158Z,75.49
2023-03-16T23:52:22.489Z,75.20
2023-03-16T23:54:48.833Z,74.64
2023-03-16T23:57:15.231Z,74.34
2023-03-16T23:59:41.620Z,73.70
